Terminal Aerodrome Forecast
Issued by NWS

Home | Current Version | Previous Version | Text Only | Print | Product List | Glossary On
Versions: 1 2 3 4 5 6 7 8 9 10 11 12 13 14 15 16 17 18 19 20
000
FTUS45 KABQ 241139
TAFTCC
TAF
KTCC 241139Z 2412/2512 VRB06KT 5SM BR OVC012
      TEMPO 2412/2415 3/4SM BR OVC003
     FM241500 25010KT 6SM BR BKN025
     FM241800 24018G28KT P6SM SCT080
     FM250200 25012KT P6SM SCT100=

USA.gov is the U.S. government's official web portal to all federal, state and local government web resources and services.